Flight Track Log - Related Links

Times and Time Zones

All times are in EST time to prevent confusion due to time zone crossing. See the TCF3494 flight status page for this flight to view local times or setup timezone preferences in your user account.

Time Position Orientation Groundspeed Altitude Reporting Facility
EST Latitude Longitude Course Direction KTS MPH feet Rate Location/Type
Thu 02:58:00 PM 42.0000 -87.9500 270° West 159 183 1,700  Level Chicago TRACON
Thu 02:59:00 PM 42.0167 -88.0167 289° West 205 236 2,900 1,500 Climbing Chicago TRACON
Thu 03:00:32 PM 42.0244 -88.1328 275° West 249 287 5,500 2,065 Climbing Chicago Center
Thu 03:01:00 PM 42.0074 -88.4306 270° West  Level Estimated
Thu 03:01:34 PM 42.0092 -88.2261 258° West 262 302 8,200  Level Chicago Center
Thu 03:02:00 PM 42.0141 -88.5615 270° West  Level Estimated
Thu 03:02:36 PM 41.9897 -88.3419 257° West 268 308 11,100  Level Chicago Center
Thu 03:03:00 PM 42.0206 -88.6925 270° West  Level Estimated
Thu 03:03:38 PM 41.9736 -88.4447 258° West 281 323 13,400  Level Chicago Center
Thu 03:04:40 PM 41.9575 -88.5428 258° West 273 314 16,000 1,790 Climbing Chicago Center
Thu 03:05:42 PM 41.9400 -88.6419 257° West 274 315 17,100 1,500 Climbing Chicago Center
Thu 03:06:44 PM 41.9175 -88.7783 258° West 306 352 19,100 1,694 Climbing Chicago Center
Thu 03:07:46 PM 41.9097 -88.8917 265° West 311 358 20,600 1,500 Climbing Chicago Center
Thu 03:08:48 PM 41.9067 -89.0106 268° West 318 366 22,200 1,645 Climbing Chicago Center
Thu 03:09:50 PM 41.9031 -89.1256 268° West 313 360 24,000 1,306 Climbing Chicago Center
Thu 03:10:52 PM 41.8975 -89.2428 266° West 317 365 24,900 1,008 Climbing Chicago Center
Thu 03:11:55 PM 41.8853 -89.3625 262° West 323 372 26,100 1,200 Climbing Chicago Center
Thu 03:12:57 PM 41.8728 -89.5081 263° West 327 376 27,400 1,113 Climbing Chicago Center
Thu 03:13:59 PM 41.8575 -89.6350 261° West 339 390 28,400 1,065 Climbing Chicago Center
Thu 03:15:01 PM 41.8447 -89.7617 262° West 343 395 29,600 1,403 Climbing Chicago Center
Thu 03:16:03 PM 41.8325 -89.8883 263° West 345 397 31,300 1,452 Climbing Chicago Center
Thu 03:17:05 PM 41.8239 -90.0175 265° West 333 383 32,600 1,161 Climbing Chicago Center
Thu 03:18:07 PM 41.8161 -90.1381 265° West 329 379 33,700 968 Climbing Chicago Center
Thu 03:19:09 PM 41.8128 -90.2625 268° West 334 384 34,600 774 Climbing Chicago Center
Thu 03:20:11 PM 41.8114 -90.4125 269° West 336 387 35,300 677 Climbing Chicago Center
Thu 03:21:13 PM 41.8058 -90.5367 267° West 336 387 36,000 336 Climbing Chicago Center
Thu 03:22:16 PM 41.8011 -90.6597 267° West 336 387 36,000  Level Chicago Center
Thu 03:23:18 PM 41.7983 -90.7808 268° West 331 381 36,000  Level Chicago Center
Thu 03:24:20 PM 41.7958 -90.9017 268° West 327 376 36,000  Level Chicago Center
Thu 03:25:22 PM 41.7919 -91.0528 268° West 336 387 36,000  Level Chicago Center
Thu 03:26:24 PM 41.7881 -91.1783 268° West 338 389 36,000  Level Chicago Center
Thu 03:27:26 PM 41.7844 -91.3036 268° West 338 389 36,000  Level Chicago Center
Thu 03:28:28 PM 41.7803 -91.4308 268° West 342 394 36,000  Level Chicago Center
Thu 03:29:30 PM 41.7761 -91.5561 267° West 339 390 36,000  Level Chicago Center
Thu 03:30:32 PM 41.7725 -91.6833 268° West 341 392 36,000  Level Chicago Center
Thu 03:31:34 PM 41.7681 -91.8375 268° West 345 397 36,000  Level Chicago Center
Thu 03:32:37 PM 41.7636 -91.9642 267° West 343 395 36,000  Level Chicago Center
Thu 03:33:39 PM 41.7594 -92.0936 268° West 347 399 36,000  Level Chicago Center
Thu 03:34:41 PM 41.7536 -92.2217 267° West 348 400 36,000  Level Chicago Center
Thu 03:35:43 PM 41.7492 -92.3494 267° West 345 397 36,000  Level Chicago Center
Thu 03:36:45 PM 41.7433 -92.5031 267° West 346 398 36,000  Level Chicago Center
Thu 03:37:47 PM 41.7369 -92.6289 266° West 344 396 36,000  Level Chicago Center
Thu 03:38:31 PM 41.7347 -92.7100 268° West 349 402 36,000  Level Minneapolis Center
Thu 03:39:33 PM 41.7281 -92.8617 267° West 349 402 36,000  Level Minneapolis Center
Thu 03:40:35 PM 41.7217 -92.9886 266° West 347 399 36,000  Level Minneapolis Center
Thu 03:41:37 PM 41.7164 -93.1164 267° West 347 399 36,000  Level Minneapolis Center
Thu 03:42:39 PM 41.7106 -93.2464 267° West 350 403 36,000  Level Minneapolis Center
Thu 03:43:40 PM 41.7036 -93.4036 267° West 354 407 36,000  Level Minneapolis Center
Thu 03:44:42 PM 41.6967 -93.5342 266° West 353 406 36,000  Level Minneapolis Center
Thu 03:45:44 PM 41.6906 -93.6639 266° West 354 407 36,000  Level Minneapolis Center
Thu 03:46:46 PM 41.6844 -93.7914 266° West 351 404 36,000  Level Minneapolis Center
Thu 03:47:48 PM 41.6781 -93.9208 266° West 351 404 36,000  Level Minneapolis Center
Thu 03:48:50 PM 41.6714 -94.0489 266° West 350 403 36,000  Level Minneapolis Center
Thu 03:49:51 PM 41.6636 -94.2047 266° West 352 405 36,000  Level Minneapolis Center
Thu 03:50:53 PM 41.6542 -94.3392 265° West 353 406 36,000  Level Minneapolis Center
Thu 03:51:55 PM 41.6486 -94.4681 267° West 350 403 36,000  Level Minneapolis Center
Thu 03:52:57 PM 41.6417 -94.5983 266° West 351 404 36,000  Level Minneapolis Center
Thu 03:53:59 PM 41.6331 -94.7289 265° West 352 405 36,000  Level Minneapolis Center
Thu 03:55:01 PM 41.6258 -94.8589 266° West 352 405 36,000  Level Minneapolis Center
Thu 03:56:02 PM 41.6167 -94.9889 265° West 352 405 36,000  Level Minneapolis Center
Thu 03:57:04 PM 41.6075 -95.1442 266° West 351 404 36,000  Level Minneapolis Center
Thu 03:58:06 PM 41.5989 -95.2747 265° West 353 406 36,000  Level Minneapolis Center
Thu 03:59:09 PM 41.5903 -95.4050 265° West 353 406 36,000  Level Minneapolis Center
Thu 04:00:11 PM 41.5819 -95.5344 265° West 352 405 36,000  Level Minneapolis Center
Thu 04:01:13 PM 41.5722 -95.6836 265° West 350 403 36,000  Level Minneapolis Center
Thu 04:02:15 PM 41.5636 -95.8125 265° West 348 400 36,000  Level Minneapolis Center
Thu 04:03:17 PM 41.5539 -95.9411 264° West 348 400 36,000  Level Minneapolis Center
Thu 04:04:18 PM 41.5450 -96.0711 265° West 350 403 36,000  Level Minneapolis Center
Thu 04:05:20 PM 41.5353 -96.1992 264° West 349 402 36,000  Level Minneapolis Center
Thu 04:06:22 PM 41.5256 -96.3278 264° West 347 399 36,000  Level Minneapolis Center
Thu 04:07:24 PM 41.5156 -96.4786 265° West 349 402 36,000  Level Minneapolis Center
Thu 04:08:26 PM 41.5056 -96.6069 264° West 349 402 36,000  Level Minneapolis Center
Thu 04:09:28 PM 41.4953 -96.7347 264° West 347 399 36,000  Level Minneapolis Center
Thu 04:10:30 PM 41.4850 -96.8617 264° West 347 399 36,000  Level Minneapolis Center
Thu 04:11:31 PM 41.4747 -96.9869 264° West 342 394 36,000  Level Minneapolis Center
Thu 04:12:33 PM 41.4650 -97.1119 264° West 340 391 36,000  Level Minneapolis Center
Thu 04:13:35 PM 41.4544 -97.2386 264° West 344 396 36,000  Level Minneapolis Center
Thu 04:14:37 PM 41.4436 -97.3886 265° West 340 391 36,000  Level Minneapolis Center
Thu 04:15:39 PM 41.4317 -97.5128 263° West 338 389 36,000  Level Minneapolis Center
Thu 04:16:41 PM 41.4211 -97.6386 264° West 342 394 36,000  Level Minneapolis Center
Thu 04:17:43 PM 41.4114 -97.7642 264° West 341 392 36,000  Level Minneapolis Center
Thu 04:18:45 PM 41.4000 -97.8894 263° West 341 392 36,000  Level Minneapolis Center
Thu 04:19:47 PM 41.3894 -98.0142 264° West 340 391 36,000  Level Minneapolis Center
Thu 04:20:49 PM 41.3772 -98.1469 263° West 342 394 36,000  Level Minneapolis Center
Thu 04:21:50 PM 41.3664 -98.2736 264° West 344 396 36,000  Level Minneapolis Center
Thu 04:22:52 PM 41.3525 -98.4231 263° West 341 392 36,000  Level Minneapolis Center
Thu 04:23:54 PM 41.3417 -98.5400 263° West 339 390 36,000  Level Minneapolis Center
Thu 04:24:56 PM 41.3303 -98.6636 263° West 338 389 36,000  Level Minneapolis Center
Thu 04:25:58 PM 41.3172 -98.7878 262° West 338 389 36,000  Level Minneapolis Center
Thu 04:26:59 PM 41.3044 -98.9117 262° West 339 390 36,000  Level Minneapolis Center
Thu 04:28:01 PM 41.2914 -99.0606 263° West 338 389 36,000  Level Minneapolis Center
Thu 04:29:03 PM 41.2800 -99.1839 263° West 338 389 36,000  Level Minneapolis Center
Thu 04:30:05 PM 41.2683 -99.3083 263° West 339 390 36,000  Level Minneapolis Center
Thu 04:31:07 PM 41.2561 -99.4306 262° West 336 387 36,000  Level Minneapolis Center
Thu 04:32:09 PM 41.2436 -99.5528 262° West 336 387 36,000  Level Minneapolis Center
Thu 04:33:10 PM 41.2322 -99.6739 263° West 333 383 36,000  Level Minneapolis Center
Thu 04:34:12 PM 41.2197 -99.7961 262° West 333 383 36,000  Level Minneapolis Center
Thu 04:35:14 PM 41.2047 -99.9422 262° West 333 383 36,000  Level Minneapolis Center
Thu 04:36:16 PM 41.1917 -100.0636 262° West 333 383 36,000  Level Minneapolis Center
Thu 04:37:18 PM 41.1783 -100.1861 262° West 334 384 36,000  Level Minneapolis Center
Thu 04:38:20 PM 41.1647 -100.3094 262° West 336 387 36,000  Level Minneapolis Center
Thu 04:39:23 PM 41.1514 -100.4314 262° West 335 386 36,000  Level Minneapolis Center
Thu 04:40:25 PM 41.1378 -100.5528 262° West 334 384 36,000  Level Minneapolis Center
Thu 04:41:43 PM 41.1167 -100.7272 261° West 334 384 36,000  Level Denver Center
Thu 04:42:45 PM 41.1036 -100.8417 261° West 332 382 36,000  Level Denver Center
Thu 04:43:47 PM 41.0883 -100.9753 261° West 331 381 36,000  Level Denver Center
Thu 04:44:49 PM 41.0753 -101.0903 261° West 331 381 36,000  Level Denver Center
Thu 04:45:51 PM 41.0592 -101.2236 261° West 330 380 36,000  Level Denver Center
Thu 04:46:53 PM 41.0467 -101.3400 262° West 333 383 36,000  Level Denver Center
Thu 04:47:54 PM 41.0292 -101.4744 260° West 334 384 36,000  Level Denver Center
Thu 04:48:56 PM 41.0169 -101.5900 262° West 333 383 36,000  Level Denver Center
Thu 04:49:58 PM 40.9994 -101.7264 260° West 336 387 36,000  Level Denver Center
Thu 04:51:00 PM 40.9861 -101.8408 261° West 332 382 36,000  Level Denver Center
Thu 04:52:02 PM 40.9694 -101.9753 261° West 331 381 36,000  Level Denver Center
Thu 04:53:04 PM 40.9553 -102.0908 261° West 332 382 36,000  Level Denver Center
Thu 04:54:06 PM 40.9417 -102.2067 261° West 334 384 36,000  Level Denver Center
Thu 04:55:08 PM 40.9219 -102.3417 259° West 337 388 36,000  Level Denver Center
Thu 04:56:10 PM 40.9083 -102.4556 261° West 329 379 36,000  Level Denver Center
Thu 04:57:24 PM 40.8897 -102.5914 260° West 336 387 36,000  Level Denver Center
Thu 04:58:26 PM 40.8711 -102.7442 261° West 331 381 36,000  Level Denver Center
Thu 04:59:28 PM 40.8556 -102.8589 260° West 331 381 36,000  Level Denver Center
Thu 05:00:30 PM 40.8372 -102.9931 260° West 333 383 36,000  Level Denver Center
Thu 05:01:32 PM 40.8222 -103.1067 260° West 328 377 36,000  Level Denver Center
Thu 05:02:34 PM 40.8061 -103.2264 260° West 331 381 36,000  Level Denver Center
Thu 05:03:48 PM 40.7897 -103.3456 260° West 331 381 36,000  Level Denver Center
Thu 05:04:50 PM 40.7703 -103.4861 260° West 326 375 36,000  Level Denver Center
Thu 05:05:52 PM 40.7503 -103.6289 260° West 330 380 36,000  Level Denver Center
Thu 05:06:54 PM 40.7333 -103.7478 259° West 331 381 36,000  Level Denver Center
Thu 05:07:56 PM 40.7183 -103.8653 260° West 326 375 36,000  Level Denver Center
Thu 05:08:58 PM 40.7014 -103.9825 259° West 327 376 36,000  Level Denver Center
Thu 05:10:00 PM 40.6844 -104.1008 259° West 329 379 36,000  Level Denver Center
Thu 05:11:02 PM 40.6675 -104.2194 259° West 331 381 36,000  Level Denver Center
Thu 05:12:03 PM 40.6469 -104.3592 259° West 325 374 36,000  Level Denver Center
Thu 05:13:05 PM 40.6297 -104.4789 259° West 331 381 36,000  Level Denver Center
Thu 05:14:07 PM 40.6119 -104.5956 259° West 328 377 36,000  Level Denver Center
Thu 05:15:09 PM 40.5944 -104.7133 259° West 330 380 36,000  Level Denver Center
Thu 05:16:11 PM 40.5806 -104.8067 259° West 328 377 36,000  Level Denver Center
Thu 05:17:13 PM 40.5600 -104.9489 259° West 331 381 36,000  Level Denver Center
Thu 05:18:14 PM 40.5381 -105.0883 258° West 328 377 36,000  Level Denver Center
Thu 05:19:16 PM 40.5206 -105.2006 258° West 318 366 36,000  Level Denver Center
Thu 05:20:18 PM 40.5022 -105.3169 258° West 323 372 36,000  Level Denver Center
Thu 05:21:20 PM 40.4842 -105.4353 259° West 330 380 36,000  Level Denver Center
Thu 05:22:22 PM 40.4658 -105.5531 258° West 331 381 36,000  Level Denver Center
Thu 05:23:24 PM 40.4503 -105.6725 260° West 333 383 36,000  Level Denver Center
Thu 05:24:26 PM 40.4375 -105.8119 263° West 324 373 36,000  Level Denver Center
Thu 05:25:28 PM 40.4264 -105.9292 263° West 325 374 36,000  Level Denver Center
Thu 05:26:30 PM 40.4167 -106.0464 264° West 325 374 36,000  Level Denver Center
Thu 05:27:32 PM 40.4033 -106.1717 262° West 319 367 36,000  Level Denver Center
Thu 05:28:33 PM 40.3917 -106.2850 262° West 325 374 36,000  Level Denver Center
Thu 05:29:35 PM 40.3794 -106.4158 263° West 325 374 36,000  Level Denver Center
Thu 05:30:37 PM 40.3692 -106.5269 263° West 322 371 36,000  Level Denver Center
Thu 05:31:39 PM 40.3572 -106.6431 262° West 322 371 36,000  Level Denver Center
Thu 05:32:41 PM 40.3447 -106.7575 262° West 320 368 36,000  Level Denver Center
Thu 05:33:43 PM 40.3336 -106.8781 263° West 321 369 36,000  Level Denver Center
Thu 05:34:45 PM 40.3192 -107.0064 262° West 319 367 36,000  Level Denver Center
Thu 05:35:47 PM 40.3081 -107.1181 263° West 322 371 36,000  Level Denver Center
Thu 05:36:49 PM 40.2944 -107.2461 262° West 319 367 36,000  Level Denver Center
Thu 05:37:51 PM 40.2825 -107.3558 262° West 318 366 36,000  Level Denver Center
Thu 05:38:53 PM 40.2686 -107.4819 262° West 315 362 36,000  Level Denver Center
Thu 05:39:55 PM 40.2569 -107.5919 262° West 318 366 36,000  Level Denver Center
Thu 05:40:57 PM 40.2428 -107.7186 262° West 316 364 36,000  Level Denver Center
Thu 05:41:59 PM 40.2314 -107.8256 262° West 314 361 36,000  Level Denver Center
Thu 05:43:01 PM 40.2178 -107.9528 262° West 316 364 36,000  Level Denver Center
Thu 05:44:03 PM 40.2053 -108.0606 261° West 315 362 36,000  Level Denver Center
Thu 05:45:05 PM 40.1906 -108.1861 261° West 314 361 36,000  Level Denver Center
Thu 05:46:07 PM 40.1786 -108.2942 262° West 313 360 36,000  Level Denver Center
Thu 05:47:09 PM 40.1653 -108.4033 261° West 317 365 36,000  Level Denver Center
Thu 05:48:11 PM 40.1503 -108.5281 261° West 314 361 36,000  Level Denver Center
Thu 05:49:13 PM 40.1375 -108.6361 261° West 316 364 36,000  Level Denver Center
Thu 05:50:15 PM 40.1222 -108.7642 261° West 319 367 36,000  Level Denver Center
Thu 05:51:17 PM 40.1094 -108.8714 261° West 316 364 36,000  Level Denver Center
Thu 05:52:19 PM 40.1125 -109.0006 272° West 320 368 36,000  Level Denver Center
Thu 05:53:21 PM 40.1167 -109.1117 273° West 321 369 36,000  Level Denver Center
Thu 05:54:23 PM 40.1217 -109.2425 273° West 323 372 36,000 -290 Level Denver Center
Thu 05:55:25 PM 40.1247 -109.3547 272° West 324 373 35,400 -919 Descending Denver Center
Thu 05:56:27 PM 40.1294 -109.4864 273° West 324 373 34,100 -1,210 Descending Salt Lake Center
Thu 05:57:29 PM 40.1336 -109.6056 273° West 340 391 32,900 -1,258 Descending Salt Lake Center
Thu 05:58:31 PM 40.1381 -109.7467 272° West 345 397 31,500 -1,258 Descending Salt Lake Center
Thu 05:59:33 PM 40.1419 -109.8711 272° West 354 407 30,300 -726 Descending Salt Lake Center
Thu 06:00:35 PM 40.1464 -110.0186 272° West 363 418 30,000 -145 Descending Salt Lake Center
Thu 06:01:37 PM 40.1494 -110.1439 272° West 362 417 30,000  Level Salt Lake Center
Thu 06:02:39 PM 40.1486 -110.2931 270° West 368 423 30,000  Level Salt Lake Center
Thu 06:03:40 PM 40.1469 -110.4175 269° West 360 414 30,000  Level Salt Lake Center
Thu 06:04:42 PM 40.1456 -110.5522 269° West 337 388 30,000 -532 Level Salt Lake Center
Thu 06:05:44 PM 40.1436 -110.6697 269° West 337 388 28,900 -1,403 Descending Salt Lake Center
Thu 06:06:46 PM 40.1433 -110.7903 270° West 345 397 27,100 -1,839 Descending Salt Lake Center
Thu 06:07:48 PM 40.1408 -110.9294 269° West 343 395 25,100 -1,790 Descending Salt Lake Center
Thu 06:08:50 PM 40.1400 -111.0478 270° West 334 384 23,400 -1,707 Descending Salt Lake Center
Thu 06:09:51 PM 40.1381 -111.1664 269° West 328 377 21,600 -1,707 Descending Salt Lake Center
Thu 06:10:53 PM 40.1367 -111.2822 269° West 321 369 19,900 -1,790 Descending Salt Lake Center
Thu 06:11:55 PM 40.1325 -111.4211 268° West 319 367 17,900 -1,855 Descending Salt Lake Center
Thu 06:12:43 PM 40.1264 -111.5181 265° West 315 362 16,500 -1,645 Descending Salt Lake Center
Thu 06:12:57 PM 40.1306 -111.5344 288° West 313 360 16,200 -1,000 Descending Salt Lake Center
Thu 06:13:13 PM 40.1322 -111.5692 274° West 313 360 16,000 -484 Descending Salt Lake Center
Thu 06:13:59 PM 40.1619 -111.6319 302° West 292 336 15,700 -787 Descending Salt Lake Center
Thu 06:14:14 PM 40.1692 -111.6664 285° West 288 331 15,200 -1,161 Descending Salt Lake Center
Thu 06:15:01 PM 40.2072 -111.7186 314° West 294 338 14,500 -984 Descending Salt Lake Center
Thu 06:15:15 PM 40.2225 -111.7492 303° West 293 337 14,200 -787 Descending Salt Lake Center
Thu 06:16:02 PM 40.2625 -111.7944 319° Northwest 288 331 13,700 -716 Descending Salt Lake Center
Thu 06:16:22 PM 40.2817 -111.8303 305° West 275 316 13,400 -871 Descending Salt Lake Center
Thu 06:17:04 PM 40.3153 -111.8553 330° Northwest 249 287 12,800 -1,100 Descending Salt Lake Center
Thu 06:17:22 PM 40.3353 -111.8825 314° West 246 283 12,300 -1,258 Descending Salt Lake Center
Thu 06:18:06 PM 40.3686 -111.9100 328° Northwest 243 280 11,500 -1,279 Descending Salt Lake Center
Thu 06:18:23 PM 40.3886 -111.9347 317° Northwest 244 281 11,000 -484 Descending Salt Lake Center
Thu 06:19:08 PM 40.4433 -111.9350 360° North 236 272 11,000 -295 Level Salt Lake Center
Thu 06:19:24 PM 40.4544 -111.9406 339° North 235 270 10,700 -1,258 Descending Salt Lake Center
Thu 06:20:10 PM 40.5061 -111.9419 359° North 227 261 9,700 -1,279 Descending Salt Lake Center
Thu 06:20:25 PM 40.5181 -111.9472 341° North 203 234 9,400 -968 Descending Salt Lake Center
Thu 06:21:12 PM 40.5547 -111.9478 359° North 175 201 8,700 -1,000 Descending Salt Lake Center
Thu 06:21:25 PM 40.5667 -111.9533 341° North 172 198 8,400 -968 Descending Salt Lake Center
Thu 06:22:14 PM 40.6050 -111.9533 360° North 180 207 7,700 -968 Descending Salt Lake Center
Thu 06:22:27 PM 40.6172 -111.9589 341° North 179 206 7,400 -968 Descending Salt Lake Center
Thu 06:23:16 PM 40.6528 -111.9592 360° North 175 201 6,700 -1,000 Descending Salt Lake Center
Thu 06:23:33 PM 40.6681 -111.9642 346° North 168 193 6,300 -1,000 Descending Salt Lake Center
Thu 06:24:28 PM 40.7094 -111.9669 357° North 167 192 5,500 -792 Descending Salt Lake Center
Thu 06:25:19 PM 40.7411 -111.9692 357° North 158 182 4,900 -800 Descending Salt Lake Center
Thu 06:25:28 PM 40.7494 -111.9733 339° North 153 176 4,700 -677 Descending Salt Lake Center
Thu 06:26:21 PM 40.7886 -111.9742 359° North 143 165 4,200 -566 Descending Salt Lake Center

Login

Don't have an account? Register now (free) for customized features, flight alerts, and more!